Time;durP1;ratioP1;P1;durP2;ratioP2;P2;SDS_P1;SDS_P2;PMS_P1;PMS_P2;Temp;Humidity;BMP_temperature;BMP_pressure;BME280_temperature;BME280_humidity;BME280_pressure;Samples;Min_cycle;Max_cycle;Signal;HPM_P1;HPM_P2
2021/08/07 00:00:18;;;;;;;;;;;;;;;22.55;42.11;98694.03;5013633;28;1067;-61
2021/08/07 00:02:44;;;;;;;;;;;;;;;22.51;42.46;98692.75;5013456;28;825;-61
2021/08/07 00:05:11;;;;;;;;;;;;;;;22.47;42.71;98686.59;5013403;28;853;-61
2021/08/07 00:07:38;;;;;;;;;;;;;;;22.45;42.47;98681.50;5013170;28;1009;-60
2021/08/07 00:10:07;;;;;;;;;;;;;;;22.41;43.09;98669.72;5013201;28;1150;-62
2021/08/07 00:12:35;;;;;;;;;;;;;;;22.43;43.19;98673.56;5013245;28;910;-61
2021/08/07 00:15:02;;;;;;;;;;;;;;;22.38;43.23;98684.81;5013369;28;857;-61
2021/08/07 00:17:29;;;;;;;;;;;;;;;22.33;43.76;98671.50;5013136;28;1974;-61
2021/08/07 00:19:56;;;;;;;;;;;;;;;22.32;44.05;98675.59;5013104;28;873;-61
2021/08/07 00:22:22;;;;;;;;;;;;;;;22.27;44.06;98679.94;5013090;28;1057;-62
2021/08/07 00:24:49;;;;;;;;;;;;;;;22.23;44.29;98690.66;5013055;28;858;-61
2021/08/07 00:27:15;;;;;;;;;;;;;;;22.17;44.55;98687.84;5012993;28;838;-62
2021/08/07 00:29:42;;;;;;;;;;;;;;;22.15;44.65;98673.50;5012930;28;895;-61
2021/08/07 00:32:08;;;;;;;;;;;;;;;22.14;45.38;98680.41;5012895;28;818;-61
2021/08/07 00:34:35;;;;;;;;;;;;;;;22.21;45.25;98682.72;5012676;28;877;-62
2021/08/07 00:37:05;;;;;;;;;;;;;;;22.23;45.18;98687.84;5012803;28;833;-62
2021/08/07 00:39:30;;;;;;;;;;;;;;;22.26;45.56;98695.28;5012775;28;865;-62
2021/08/07 00:41:57;;;;;;;;;;;;;;;22.28;45.29;98700.44;5012678;28;827;-61
2021/08/07 00:44:24;;;;;;;;;;;;;;;22.14;45.50;98697.28;5012718;28;870;-61
2021/08/07 00:46:50;;;;;;;;;;;;;;;22.06;46.07;98706.72;5012611;28;874;-61
2021/08/07 00:49:16;;;;;;;;;;;;;;;21.93;46.10;98710.03;5012714;28;814;-62
2021/08/07 00:51:44;;;;;;;;;;;;;;;21.91;45.79;98702.13;5012529;28;853;-61
2021/08/07 00:54:11;;;;;;;;;;;;;;;21.90;46.18;98708.25;5012748;28;818;-61
2021/08/07 00:56:38;;;;;;;;;;;;;;;21.75;46.25;98714.06;5012685;28;818;-61
2021/08/07 00:59:05;;;;;;;;;;;;;;;21.63;47.21;98710.44;5012289;28;1955;-61
2021/08/07 01:01:34;;;;;;;;;;;;;;;21.75;47.20;98714.06;5012494;28;799;-61
2021/08/07 01:04:03;;;;;;;;;;;;;;;21.86;46.70;98708.47;5012389;28;826;-60
2021/08/07 01:06:29;;;;;;;;;;;;;;;21.82;46.55;98705.91;5012147;28;953;-60
2021/08/07 01:09:08;;;;;;;;;;;;;;;21.79;46.86;98700.53;5012129;28;1430;-60
2021/08/07 01:11:45;;;;;;;;;;;;;;;21.73;46.92;98706.13;5012616;28;822;-61
2021/08/07 01:14:13;;;;;;;;;;;;;;;21.65;47.23;98698.69;5012120;28;881;-60
2021/08/07 01:16:43;;;;;;;;;;;;;;;21.60;47.60;98706.59;5012173;28;917;-61
2021/08/07 01:19:16;;;;;;;;;;;;;;;21.58;47.61;98695.09;5012091;28;1914;-60
2021/08/07 01:21:53;;;;;;;;;;;;;;;21.58;47.53;98699.94;5012078;28;842;-60
2021/08/07 01:24:34;;;;;;;;;;;;;;;21.61;47.91;98696.13;5012059;28;811;-61
2021/08/07 01:27:10;;;;;;;;;;;;;;;21.60;47.62;98695.34;5010795;28;1404;-61
2021/08/07 01:29:37;;;;;;;;;;;;;;;21.51;48.02;98700.44;5011978;28;893;-60
2021/08/07 01:32:04;;;;;;;;;;;;;;;21.37;48.43;98699.31;5011974;28;850;-61
2021/08/07 01:34:31;;;;;;;;;;;;;;;21.27;48.74;98697.97;5011935;28;924;-61
2021/08/07 01:36:58;;;;;;;;;;;;;;;21.24;49.24;98701.81;5011762;28;926;-62
2021/08/07 01:39:25;;;;;;;;;;;;;;;21.26;49.19;98693.66;5011796;28;1910;-61
2021/08/07 01:41:50;;;;;;;;;;;;;;;21.26;49.38;98705.66;5011858;28;951;-62
2021/08/07 01:44:16;;;;;;;;;;;;;;;21.23;49.07;98709.47;5011912;28;885;-62
2021/08/07 01:46:49;;;;;;;;;;;;;;;21.24;49.35;98724.28;5015859;28;886;-61
2021/08/07 01:49:17;;;;;;;;;;;;;;;21.19;49.69;98732.19;5018345;28;845;-60
2021/08/07 01:52:05;;;;;;;;;;;;;;;21.13;49.49;98733.44;5018517;28;846;-60
2021/08/07 01:54:34;;;;;;;;;;;;;;;21.13;49.52;98737.00;5018285;28;955;-62
2021/08/07 01:57:04;;;;;;;;;;;;;;;21.12;49.83;98737.50;5018489;28;826;-61
2021/08/07 01:59:34;;;;;;;;;;;;;;;21.14;50.40;98746.94;5018761;28;1950;-61
2021/08/07 02:02:03;;;;;;;;;;;;;;;21.16;50.69;98738.03;5018342;28;841;-61
2021/08/07 02:04:29;;;;;;;;;;;;;;;21.18;50.86;98741.09;5018166;28;850;-61
2021/08/07 02:06:57;;;;;;;;;;;;;;;21.19;51.06;98737.03;5018248;28;889;-60
2021/08/07 02:09:24;;;;;;;;;;;;;;;21.18;51.07;98733.44;5018093;28;1436;-61
2021/08/07 02:11:50;;;;;;;;;;;;;;;21.15;51.68;98739.31;5018114;28;874;-61
2021/08/07 02:14:17;;;;;;;;;;;;;;;21.15;51.84;98720.41;5018241;28;892;-61
2021/08/07 02:16:45;;;;;;;;;;;;;;;21.21;51.71;98726.06;5018059;28;806;-61
2021/08/07 02:19:12;;;;;;;;;;;;;;;21.21;52.18;98737.31;5018041;28;1976;-61
2021/08/07 02:21:42;;;;;;;;;;;;;;;21.17;52.43;98729.09;5017945;28;1076;-60
2021/08/07 02:24:07;;;;;;;;;;;;;;;21.14;52.69;98732.91;5018039;28;874;-61
2021/08/07 02:26:34;;;;;;;;;;;;;;;21.13;52.99;98741.84;5017926;28;960;-61
2021/08/07 02:29:01;;;;;;;;;;;;;;;21.13;53.20;98739.03;5018003;28;794;-60
2021/08/07 02:31:28;;;;;;;;;;;;;;;21.12;53.63;98732.66;5018019;28;869;-61
2021/08/07 02:33:56;;;;;;;;;;;;;;;21.07;53.96;98743.84;5018002;28;826;-61
2021/08/07 02:36:23;;;;;;;;;;;;;;;20.90;54.68;98738.88;5017927;28;834;-62
2021/08/07 02:38:50;;;;;;;;;;;;;;;20.86;55.38;98737.56;5017719;28;1910;-61
2021/08/07 02:41:17;;;;;;;;;;;;;;;20.89;55.78;98737.34;5017958;28;819;-60
2021/08/07 02:43:45;;;;;;;;;;;;;;;20.86;55.44;98740.38;5017788;28;874;-61
2021/08/07 02:46:11;;;;;;;;;;;;;;;20.74;56.44;98745.91;5017848;28;869;-62
2021/08/07 02:48:39;;;;;;;;;;;;;;;20.62;56.68;98752.69;5017827;28;881;-61
2021/08/07 02:51:06;;;;;;;;;;;;;;;20.59;57.59;98756.50;5017751;28;810;-61
2021/08/07 02:53:32;;;;;;;;;;;;;;;20.56;57.65;98761.03;5017769;28;846;-61
2021/08/07 02:55:59;;;;;;;;;;;;;;;20.50;57.86;98771.44;5017787;28;838;-61
2021/08/07 02:58:26;;;;;;;;;;;;;;;20.39;58.09;98779.75;5015203;28;1961;-62
2021/08/07 03:00:53;;;;;;;;;;;;;;;20.29;58.93;98781.97;5014536;28;960;-60
2021/08/07 03:03:20;;;;;;;;;;;;;;;20.31;59.55;98792.66;5014554;28;1064;-62
2021/08/07 03:05:46;;;;;;;;;;;;;;;20.39;59.64;98807.81;5014563;28;913;-62
2021/08/07 03:08:12;;;;;;;;;;;;;;;20.38;59.43;98823.88;5014396;28;916;-62
2021/08/07 03:10:39;;;;;;;;;;;;;;;20.31;59.54;98823.53;5014172;28;1445;-61
2021/08/07 03:13:06;;;;;;;;;;;;;;;20.21;59.83;98836.19;5014364;28;909;-61
2021/08/07 03:15:33;;;;;;;;;;;;;;;20.13;60.39;98847.06;5014545;28;908;-62
2021/08/07 03:17:59;;;;;;;;;;;;;;;20.09;60.33;98852.09;5014121;28;1910;-61
2021/08/07 03:20:32;;;;;;;;;;;;;;;20.08;60.54;98856.16;5014282;28;843;-61
2021/08/07 03:23:00;;;;;;;;;;;;;;;20.02;60.74;98867.31;5014204;28;893;-61
2021/08/07 03:25:27;;;;;;;;;;;;;;;19.99;61.86;98879.50;5014230;28;839;-62
2021/08/07 03:27:53;;;;;;;;;;;;;;;20.12;61.88;98882.75;5014111;28;862;-61
2021/08/07 03:30:20;;;;;;;;;;;;;;;20.27;61.65;98882.69;5014037;28;908;-60
2021/08/07 03:32:47;;;;;;;;;;;;;;;20.33;61.66;98886.34;5013987;28;901;-61
2021/08/07 03:35:13;;;;;;;;;;;;;;;20.32;61.63;98889.63;5013941;28;878;-61
2021/08/07 03:37:40;;;;;;;;;;;;;;;20.19;61.65;98887.94;5013873;28;1907;-61
2021/08/07 03:40:07;;;;;;;;;;;;;;;20.15;62.71;98887.38;5013941;28;893;-61
2021/08/07 03:42:34;;;;;;;;;;;;;;;20.21;62.51;98898.69;5013777;28;816;-61
2021/08/07 03:45:01;;;;;;;;;;;;;;;20.20;62.79;98905.53;5014111;28;858;-60
2021/08/07 03:47:28;;;;;;;;;;;;;;;20.17;62.65;98907.28;5013691;28;825;-61
2021/08/07 03:49:55;;;;;;;;;;;;;;;20.11;63.05;98912.06;5013708;28;838;-60
2021/08/07 03:52:21;;;;;;;;;;;;;;;20.22;62.88;98919.06;5013623;28;904;-62
2021/08/07 03:54:48;;;;;;;;;;;;;;;20.33;62.38;98910.78;5013602;28;874;-61
2021/08/07 03:57:13;;;;;;;;;;;;;;;20.43;61.98;98906.59;5013470;28;1890;-61
2021/08/07 03:59:40;;;;;;;;;;;;;;;20.55;61.57;98905.47;5013577;28;869;-62
2021/08/07 04:02:06;;;;;;;;;;;;;;;20.64;61.49;98917.84;5013419;28;807;-62
2021/08/07 04:04:33;;;;;;;;;;;;;;;20.73;60.95;98926.84;5013400;28;873;-62
2021/08/07 04:07:00;;;;;;;;;;;;;;;20.86;60.30;98926.47;5013348;28;818;-61
2021/08/07 04:09:26;;;;;;;;;;;;;;;21.01;59.88;98941.19;5012693;28;1420;-61
2021/08/07 04:11:52;;;;;;;;;;;;;;;21.11;59.97;98946.66;5013620;28;826;-61
2021/08/07 04:14:19;;;;;;;;;;;;;;;21.17;59.33;98947.50;5013329;28;921;-61
2021/08/07 04:16:46;;;;;;;;;;;;;;;21.28;58.76;98941.19;5013364;28;803;-61
2021/08/07 04:19:13;;;;;;;;;;;;;;;21.41;58.27;98956.41;5013407;28;1918;-62
2021/08/07 04:21:39;;;;;;;;;;;;;;;21.53;57.90;98953.69;5013610;28;863;-61
2021/08/07 04:24:06;;;;;;;;;;;;;;;21.60;57.69;98962.44;5013603;28;882;-61
2021/08/07 04:26:33;;;;;;;;;;;;;;;21.66;57.62;98956.88;5013341;28;822;-62
2021/08/07 04:29:00;;;;;;;;;;;;;;;21.73;57.04;98956.41;5013184;28;846;-61
2021/08/07 04:31:27;;;;;;;;;;;;;;;21.80;56.70;98961.56;5013259;28;806;-61
2021/08/07 04:33:53;;;;;;;;;;;;;;;21.91;56.40;98977.00;5013194;28;823;-61
2021/08/07 04:36:20;;;;;;;;;;;;;;;22.00;56.22;98969.16;5013546;28;821;-61
2021/08/07 04:38:47;;;;;;;;;;;;;;;22.09;55.75;98973.03;5013662;28;1890;-61
2021/08/07 04:41:13;;;;;;;;;;;;;;;22.17;55.26;98985.38;5013341;28;857;-62
2021/08/07 04:43:39;;;;;;;;;;;;;;;22.20;55.17;98971.03;5012631;28;909;-62
2021/08/07 04:46:06;;;;;;;;;;;;;;;22.17;55.49;98982.56;5012663;28;870;-60
2021/08/07 04:48:33;;;;;;;;;;;;;;;22.14;55.54;98978.69;5012621;28;881;-61
2021/08/07 04:50:58;;;;;;;;;;;;;;;22.21;55.60;98994.31;5012601;28;803;-62
2021/08/07 04:53:25;;;;;;;;;;;;;;;22.32;55.02;98988.00;5012525;28;953;-61
2021/08/07 04:55:51;;;;;;;;;;;;;;;22.45;54.57;98996.81;5012436;28;842;-61
2021/08/07 04:58:18;;;;;;;;;;;;;;;22.54;54.32;99002.22;5012461;28;1885;-61
2021/08/07 05:00:44;;;;;;;;;;;;;;;22.58;53.64;98996.34;5012427;28;886;-61
2021/08/07 05:03:11;;;;;;;;;;;;;;;22.52;53.77;99001.19;5012311;28;863;-62
2021/08/07 05:05:37;;;;;;;;;;;;;;;22.48;53.53;98995.03;5012623;28;795;-61
2021/08/07 05:08:04;;;;;;;;;;;;;;;22.52;52.45;98995.56;5012360;28;1040;-61
2021/08/07 05:16:08;;;;;;;;;;;;;;;22.69;51.89;99012.53;5043464;23;1551;-61
2021/08/07 05:18:35;;;;;;;;;;;;;;;22.67;51.82;99027.09;5012125;28;1910;-60
2021/08/07 05:21:02;;;;;;;;;;;;;;;22.73;51.22;99005.38;5011305;28;810;-61
2021/08/07 05:23:29;;;;;;;;;;;;;;;22.81;51.06;99012.06;5012028;28;838;-62
2021/08/07 05:25:55;;;;;;;;;;;;;;;22.80;50.27;99023.84;5012124;28;826;-60
2021/08/07 05:28:22;;;;;;;;;;;;;;;22.82;50.27;99044.59;5010757;28;1223;-61
2021/08/07 05:30:49;;;;;;;;;;;;;;;23.06;50.25;99034.97;5011954;28;858;-61
2021/08/07 05:33:15;;;;;;;;;;;;;;;23.33;49.59;99038.38;5010619;28;1278;-61
2021/08/07 05:35:42;;;;;;;;;;;;;;;23.53;48.51;99048.66;5012136;28;823;-61
2021/08/07 05:38:08;;;;;;;;;;;;;;;23.73;47.72;99056.91;5012042;28;1910;-61
2021/08/07 05:40:35;;;;;;;;;;;;;;;23.88;46.90;99045.41;5011893;28;814;-61
2021/08/07 05:43:01;;;;;;;;;;;;;;;23.99;46.63;99056.69;5011815;28;835;-61
2021/08/07 05:45:28;;;;;;;;;;;;;;;24.10;46.22;99058.72;5011773;28;873;-61
2021/08/07 05:47:55;;;;;;;;;;;;;;;24.39;45.35;99053.81;5011847;28;834;-60
2021/08/07 05:50:20;;;;;;;;;;;;;;;24.69;44.99;99062.50;5011823;28;834;-61
2021/08/07 05:52:47;;;;;;;;;;;;;;;25.37;43.58;99057.34;5011758;28;827;-63
2021/08/07 05:55:13;;;;;;;;;;;;;;;26.04;41.94;99064.59;5011746;28;854;-61
2021/08/07 05:57:39;;;;;;;;;;;;;;;26.54;41.16;99079.56;5011701;28;1977;-61
2021/08/07 06:00:06;;;;;;;;;;;;;;;27.08;39.68;99086.47;5011570;28;910;-61
2021/08/07 06:02:34;;;;;;;;;;;;;;;27.14;39.70;99075.84;5011727;28;893;-62
2021/08/07 06:05:00;;;;;;;;;;;;;;;27.20;39.80;99090.69;5011643;28;839;-62
2021/08/07 06:07:27;;;;;;;;;;;;;;;27.35;38.58;99087.41;5010358;28;1294;-61
2021/08/07 06:09:54;;;;;;;;;;;;;;;27.53;39.18;99087.97;5026728;28;1188;-61
2021/08/07 06:12:21;;;;;;;;;;;;;;;27.60;37.20;99095.84;5011583;28;834;-60
2021/08/07 06:14:48;;;;;;;;;;;;;;;27.58;38.61;99095.63;5010158;28;1292;-61
2021/08/07 06:17:14;;;;;;;;;;;;;;;27.84;38.07;99090.06;5011339;28;1435;-62
2021/08/07 06:19:41;;;;;;;;;;;;;;;27.96;37.74;99090.69;5011544;28;1907;-61
2021/08/07 06:22:07;;;;;;;;;;;;;;;28.39;35.73;99069.81;5011450;28;850;-61
2021/08/07 06:24:34;;;;;;;;;;;;;;;28.09;35.80;99075.75;5011524;28;838;-62
2021/08/07 06:27:00;;;;;;;;;;;;;;;27.85;35.98;99085.97;5011521;28;814;-60
2021/08/07 06:29:27;;;;;;;;;;;;;;;28.27;35.89;99079.84;5011429;28;930;-62
2021/08/07 06:31:53;;;;;;;;;;;;;;;28.49;35.42;99070.94;5011957;28;834;-62
2021/08/07 06:34:20;;;;;;;;;;;;;;;28.57;34.59;99070.28;5015101;28;893;-61
2021/08/07 06:36:46;;;;;;;;;;;;;;;28.56;34.99;99063.84;5015203;28;923;-61
2021/08/07 06:39:14;;;;;;;;;;;;;;;28.34;34.54;99058.56;5015033;28;1959;-62
2021/08/07 06:41:41;;;;;;;;;;;;;;;28.18;34.76;99060.38;5015012;28;913;-63
2021/08/07 06:44:07;;;;;;;;;;;;;;;28.17;35.29;99051.09;5014868;28;905;-61
2021/08/07 06:46:34;;;;;;;;;;;;;;;28.14;34.59;99029.44;5015111;28;870;-62
2021/08/07 06:49:00;;;;;;;;;;;;;;;28.01;35.48;99043.63;5015144;28;890;-62
2021/08/07 06:51:27;;;;;;;;;;;;;;;28.43;34.90;99041.84;5015019;28;846;-62
2021/08/07 06:53:53;;;;;;;;;;;;;;;28.41;34.29;99038.00;5015538;28;767;-63
2021/08/07 06:56:20;;;;;;;;;;;;;;;28.57;34.33;99039.00;5014812;28;1526;-63
2021/08/07 06:58:47;;;;;;;;;;;;;;;28.79;33.89;99037.81;5015486;28;2015;-64
2021/08/07 07:01:13;;;;;;;;;;;;;;;28.73;34.51;99035.09;5014661;28;893;-62
2021/08/07 07:03:40;;;;;;;;;;;;;;;28.40;35.09;99030.78;5014598;28;806;-64
2021/08/07 07:06:06;;;;;;;;;;;;;;;28.53;34.49;99030.84;5014492;28;862;-63
2021/08/07 07:08:33;;;;;;;;;;;;;;;28.42;34.34;99023.25;5014576;28;884;-63
2021/08/07 07:10:59;;;;;;;;;;;;;;;28.27;34.61;99043.69;5014747;28;892;-62
2021/08/07 07:13:26;;;;;;;;;;;;;;;28.50;34.97;99046.88;5014370;28;819;-63
2021/08/07 07:15:53;;;;;;;;;;;;;;;29.14;34.24;99030.13;5014797;28;949;-62
2021/08/07 07:18:20;;;;;;;;;;;;;;;29.69;33.11;99041.53;5014366;28;1918;-64
2021/08/07 07:20:46;;;;;;;;;;;;;;;29.98;32.09;99031.03;5014307;28;885;-65
2021/08/07 07:23:13;;;;;;;;;;;;;;;29.65;32.22;99049.66;5014513;28;854;-64
2021/08/07 07:25:40;;;;;;;;;;;;;;;29.57;32.69;99038.19;5014201;28;810;-65
2021/08/07 07:28:06;;;;;;;;;;;;;;;29.16;32.96;99033.19;5014123;28;818;-64
2021/08/07 07:30:33;;;;;;;;;;;;;;;29.11;33.47;99024.22;5012810;28;1311;-63
2021/08/07 07:32:59;;;;;;;;;;;;;;;29.34;33.17;99040.81;5014019;28;810;-64
2021/08/07 07:35:26;;;;;;;;;;;;;;;29.60;32.16;99039.94;5014037;28;814;-65
2021/08/07 07:37:53;;;;;;;;;;;;;;;29.74;32.13;99057.75;5014224;28;1894;-65
2021/08/07 07:40:19;;;;;;;;;;;;;;;29.82;32.20;99061.44;5013919;28;906;-65
2021/08/07 07:42:46;;;;;;;;;;;;;;;29.80;32.09;99052.69;5013845;28;838;-65
2021/08/07 07:45:12;;;;;;;;;;;;;;;29.95;32.02;99052.06;5012904;28;834;-64
2021/08/07 07:47:39;;;;;;;;;;;;;;;30.49;31.22;99038.25;5013803;28;878;-64
2021/08/07 07:50:06;;;;;;;;;;;;;;;30.64;30.95;99066.88;5013669;28;842;-62
2021/08/07 07:52:32;;;;;;;;;;;;;;;30.59;30.78;99067.03;5013696;28;882;-62
2021/08/07 07:55:00;;;;;;;;;;;;;;;30.56;30.59;99082.41;5013577;28;883;-63
2021/08/07 07:57:26;;;;;;;;;;;;;;;30.03;31.32;99077.78;5013538;28;1890;-63
2021/08/07 07:59:53;;;;;;;;;;;;;;;29.97;32.01;99075.06;5012267;28;1406;-62
2021/08/07 08:02:20;;;;;;;;;;;;;;;29.96;31.89;99087.00;5013810;28;865;-62
2021/08/07 08:04:46;;;;;;;;;;;;;;;30.71;30.81;99085.34;5013499;28;874;-63
2021/08/07 08:07:13;;;;;;;;;;;;;;;31.43;29.74;99067.47;5013458;28;862;-64
2021/08/07 08:09:39;;;;;;;;;;;;;;;30.89;30.16;99094.97;5013368;28;878;-64
2021/08/07 08:12:06;;;;;;;;;;;;;;;30.77;30.52;99088.03;5013219;28;846;-63
2021/08/07 08:14:33;;;;;;;;;;;;;;;30.98;29.30;99094.44;5013580;28;990;-63
2021/08/07 08:17:00;;;;;;;;;;;;;;;30.91;29.85;99104.50;5012900;28;1181;-63
2021/08/07 08:19:26;;;;;;;;;;;;;;;31.11;29.89;99082.94;5013165;28;2026;-63
2021/08/07 08:21:53;;;;;;;;;;;;;;;31.57;29.12;99095.88;5013110;28;818;-63
2021/08/07 08:24:20;;;;;;;;;;;;;;;32.10;28.17;99090.28;5013148;28;810;-63
2021/08/07 08:26:47;;;;;;;;;;;;;;;31.93;28.33;99113.66;5013010;28;854;-63
2021/08/07 08:29:13;;;;;;;;;;;;;;;31.56;28.19;99120.03;5013066;28;858;-62
2021/08/07 08:31:40;;;;;;;;;;;;;;;31.13;28.77;99131.66;5012961;28;818;-62
2021/08/07 08:34:07;;;;;;;;;;;;;;;31.25;28.79;99125.59;5013007;28;798;-62
2021/08/07 08:36:33;;;;;;;;;;;;;;;31.76;28.07;99139.16;5011566;28;1226;-62
2021/08/07 08:38:59;;;;;;;;;;;;;;;32.05;27.18;99136.97;5012779;28;1886;-62
2021/08/07 08:41:27;;;;;;;;;;;;;;;31.65;28.04;99142.38;5012705;28;847;-62
2021/08/07 08:43:56;;;;;;;;;;;;;;;31.65;27.84;99151.69;5012727;28;842;-62
2021/08/07 08:46:23;;;;;;;;;;;;;;;31.66;27.05;99152.44;5012681;28;862;-63
2021/08/07 08:48:51;;;;;;;;;;;;;;;31.51;27.47;99150.28;5012687;28;885;-64
2021/08/07 08:51:18;;;;;;;;;;;;;;;31.26;27.86;99156.44;5012647;28;810;-64
2021/08/07 08:53:45;;;;;;;;;;;;;;;31.38;27.79;99165.44;5012542;28;928;-63
2021/08/07 08:56:12;;;;;;;;;;;;;;;31.53;27.93;99179.06;5012447;28;850;-64
2021/08/07 08:58:38;;;;;;;;;;;;;;;31.56;27.42;99186.50;5012466;28;1957;-63
2021/08/07 09:01:08;;;;;;;;;;;;;;;31.88;27.07;99191.00;5012425;28;857;-63
2021/08/07 09:03:35;;;;;;;;;;;;;;;32.49;26.14;99193.97;5012435;28;814;-63
2021/08/07 09:06:02;;;;;;;;;;;;;;;32.43;26.74;99199.13;5012390;28;830;-62
2021/08/07 09:08:29;;;;;;;;;;;;;;;32.46;26.80;99200.09;5012376;28;806;-62
2021/08/07 09:11:14;;;;;;;;;;;;;;;33.19;26.24;99217.66;5012200;28;873;-64
2021/08/07 09:13:41;;;;;;;;;;;;;;;32.71;25.49;99226.03;5012162;28;1036;-63
2021/08/07 09:16:08;;;;;;;;;;;;;;;32.28;26.65;99227.69;5012061;28;1237;-63
2021/08/07 09:18:35;;;;;;;;;;;;;;;32.19;26.89;99226.16;5012137;28;1957;-63
2021/08/07 09:21:14;;;;;;;;;;;;;;;32.08;27.25;99220.78;5012200;28;874;-63
2021/08/07 09:23:42;;;;;;;;;;;;;;;32.13;27.40;99234.13;5012497;28;759;-63
2021/08/07 09:26:15;;;;;;;;;;;;;;;31.82;27.02;99238.97;5012942;28;811;-63
2021/08/07 09:28:46;;;;;;;;;;;;;;;31.53;28.23;99239.78;5012082;28;822;-63
2021/08/07 09:31:13;;;;;;;;;;;;;;;31.06;28.68;99231.47;5012023;28;858;-63
2021/08/07 09:33:39;;;;;;;;;;;;;;;30.33;30.19;99242.59;5011923;28;857;-64
2021/08/07 09:36:06;;;;;;;;;;;;;;;30.07;30.47;99240.59;5011924;28;814;-63
2021/08/07 09:38:34;;;;;;;;;;;;;;;30.13;31.41;99238.38;5012199;28;1957;-62
2021/08/07 09:41:04;;;;;;;;;;;;;;;31.02;30.03;99234.66;5011737;28;810;-62
2021/08/07 09:43:32;;;;;;;;;;;;;;;30.95;30.39;99235.38;5011815;28;1077;-62
2021/08/07 09:46:04;;;;;;;;;;;;;;;30.25;30.45;99251.03;5011986;28;806;-63
2021/08/07 09:48:35;;;;;;;;;;;;;;;29.99;31.98;99240.50;5011778;28;839;-62
2021/08/07 09:51:15;;;;;;;;;;;;;;;31.12;29.34;99235.69;5011793;28;987;-62
2021/08/07 09:53:42;;;;;;;;;;;;;;;31.62;27.59;99240.59;5012030;28;837;-63
2021/08/07 09:56:09;;;;;;;;;;;;;;;31.88;28.01;99231.75;5011725;28;842;-63
2021/08/07 09:58:35;;;;;;;;;;;;;;;31.01;29.31;99246.66;5011616;28;1886;-63
2021/08/07 10:01:02;;;;;;;;;;;;;;;30.25;30.29;99241.72;5011712;28;862;-63
2021/08/07 10:03:32;;;;;;;;;;;;;;;29.59;31.75;99242.63;5011577;28;862;-63
2021/08/07 10:06:20;;;;;;;;;;;;;;;29.79;30.81;99244.81;5011724;28;822;-63
2021/08/07 10:08:47;;;;;;;;;;;;;;;30.01;30.57;99249.25;5015104;28;1278;-62
2021/08/07 10:11:14;;;;;;;;;;;;;;;30.39;30.40;99245.34;5015443;28;826;-63
2021/08/07 10:13:41;;;;;;;;;;;;;;;30.48;29.81;99262.72;5015468;28;1011;-65
2021/08/07 10:16:08;;;;;;;;;;;;;;;29.99;30.19;99239.72;5015122;28;1555;-65
2021/08/07 10:18:35;;;;;;;;;;;;;;;29.13;31.00;99239.91;5015341;28;2044;-64
2021/08/07 10:21:03;;;;;;;;;;;;;;;28.46;32.79;99239.69;5015390;28;807;-63
2021/08/07 10:23:29;;;;;;;;;;;;;;;28.29;33.02;99244.84;5015408;28;802;-64
2021/08/07 10:25:56;;;;;;;;;;;;;;;29.19;31.51;99242.63;5015246;28;799;-64
2021/08/07 10:28:25;;;;;;;;;;;;;;;30.02;30.26;99239.41;5015303;28;827;-62
2021/08/07 10:30:54;;;;;;;;;;;;;;;30.79;29.15;99239.41;5015198;28;881;-64
2021/08/07 10:33:24;;;;;;;;;;;;;;;30.52;29.59;99257.44;5015634;28;809;-65
2021/08/07 10:35:53;;;;;;;;;;;;;;;30.27;29.92;99244.78;5015178;28;826;-63
2021/08/07 10:38:20;;;;;;;;;;;;;;;30.75;28.70;99239.78;5015047;28;1882;-63
2021/08/07 10:40:47;;;;;;;;;;;;;;;30.32;29.56;99252.47;5015022;28;822;-64
2021/08/07 10:43:15;;;;;;;;;;;;;;;30.21;29.89;99241.31;5014994;28;894;-62
2021/08/07 10:45:43;;;;;;;;;;;;;;;30.20;30.34;99254.78;5014994;28;835;-63
2021/08/07 10:48:28;;;;;;;;;;;;;;;29.91;30.54;99243.28;5014778;28;959;-63
2021/08/07 10:50:54;;;;;;;;;;;;;;;30.07;30.64;99252.00;5014911;28;823;-63
2021/08/07 10:53:25;;;;;;;;;;;;;;;30.71;28.92;99240.13;5014802;28;886;-63
2021/08/07 10:55:55;;;;;;;;;;;;;;;31.26;28.79;99241.31;5014784;28;876;-63
2021/08/07 10:58:41;;;;;;;;;;;;;;;31.38;27.76;99248.22;5014798;28;1886;-64
2021/08/07 11:01:23;;;;;;;;;;;;;;;31.31;28.82;99234.69;5014563;28;830;-64
2021/08/07 11:04:02;;;;;;;;;;;;;;;31.07;28.84;99224.47;5014788;28;818;-64
2021/08/07 11:06:37;;;;;;;;;;;;;;;30.30;29.38;99224.53;5014546;28;835;-63
2021/08/07 11:09:22;;;;;;;;;;;;;;;30.13;29.95;99238.38;5014590;28;806;-63
2021/08/07 11:11:50;;;;;;;;;;;;;;;31.17;28.84;99238.97;5014741;28;845;-65
2021/08/07 11:14:25;;;;;;;;;;;;;;;30.43;29.07;99225.81;5013432;28;1310;-65
2021/08/07 11:17:05;;;;;;;;;;;;;;;30.30;29.16;99241.63;5014213;28;1169;-64
2021/08/07 11:20:05;;;;;;;;;;;;;;;29.66;30.50;99219.16;5013524;28;1969;-63
2021/08/07 11:22:32;;;;;;;;;;;;;;;29.86;30.28;99212.81;5014259;28;849;-63
2021/08/07 11:25:02;;;;;;;;;;;;;;;30.57;29.66;99218.69;5014175;28;819;-63
2021/08/07 11:27:48;;;;;;;;;;;;;;;31.28;29.17;99227.22;5014242;28;870;-63
2021/08/07 11:30:33;;;;;;;;;;;;;;;31.95;27.43;99228.16;5014084;28;850;-64
2021/08/07 11:33:09;;;;;;;;;;;;;;;32.13;27.65;99223.50;5014055;28;870;-63
2021/08/07 11:35:41;;;;;;;;;;;;;;;31.87;26.35;99224.50;5014041;28;874;-64
2021/08/07 11:38:12;;;;;;;;;;;;;;;30.92;27.47;99239.38;5013824;28;1941;-64
2021/08/07 11:40:39;;;;;;;;;;;;;;;31.03;28.02;99238.31;5013976;28;838;-63
2021/08/07 11:43:11;;;;;;;;;;;;;;;31.30;27.72;99225.38;5013896;28;854;-63
2021/08/07 11:45:38;;;;;;;;;;;;;;;31.93;26.92;99233.66;5013868;28;928;-63
2021/08/07 11:48:05;;;;;;;;;;;;;;;32.05;27.33;99234.13;5013745;28;842;-64
2021/08/07 11:50:32;;;;;;;;;;;;;;;32.70;26.76;99228.16;5013995;28;807;-65
2021/08/07 11:53:00;;;;;;;;;;;;;;;32.28;26.86;99221.97;5013663;28;815;-65
2021/08/07 11:55:33;;;;;;;;;;;;;;;31.12;28.03;99221.44;5013728;28;831;-63
2021/08/07 11:58:05;;;;;;;;;;;;;;;31.45;28.91;99229.63;5013717;28;1939;-64
2021/08/07 12:00:34;;;;;;;;;;;;;;;32.18;27.59;99230.34;5013595;28;865;-64
2021/08/07 12:03:00;;;;;;;;;;;;;;;31.46;27.36;99245.47;5013542;28;842;-65
2021/08/07 12:05:28;;;;;;;;;;;;;;;31.23;27.31;99240.34;5013487;28;917;-62
2021/08/07 12:07:57;;;;;;;;;;;;;;;31.61;27.13;99225.53;5013400;28;827;-63
2021/08/07 12:10:23;;;;;;;;;;;;;;;32.13;27.17;99237.00;5013289;28;851;-63
2021/08/07 12:12:50;;;;;;;;;;;;;;;32.71;26.30;99223.97;5013576;28;823;-63
2021/08/07 12:15:17;;;;;;;;;;;;;;;32.38;26.30;99227.91;5013567;28;994;-64
2021/08/07 12:17:46;;;;;;;;;;;;;;;31.41;27.49;99238.56;5012966;28;1907;-64
2021/08/07 12:20:13;;;;;;;;;;;;;;;30.39;28.27;99233.94;5013132;28;807;-62
2021/08/07 12:22:56;;;;;;;;;;;;;;;30.88;28.57;99230.41;5013285;28;897;-62
2021/08/07 12:25:23;;;;;;;;;;;;;;;32.23;26.68;99229.41;5012994;28;874;-63
2021/08/07 12:28:12;;;;;;;;;;;;;;;33.32;25.33;99233.84;5013364;28;807;-64
2021/08/07 12:31:02;;;;;;;;;;;;;;;33.26;24.57;99219.72;5011276;28;2284;-64
2021/08/07 12:33:30;;;;;;;;;;;;;;;33.17;24.67;99220.31;5013239;28;834;-65
2021/08/07 12:35:57;;;;;;;;;;;;;;;33.20;24.90;99239.19;5013228;28;862;-65
2021/08/07 12:38:28;;;;;;;;;;;;;;;33.59;24.64;99225.56;5012461;28;1974;-64
2021/08/07 12:41:03;;;;;;;;;;;;;;;33.52;24.89;99229.19;5012889;28;827;-63
2021/08/07 12:43:33;;;;;;;;;;;;;;;33.58;25.07;99229.00;5012775;28;811;-64
2021/08/07 12:46:01;;;;;;;;;;;;;;;33.82;24.93;99225.50;5013285;28;877;-65
2021/08/07 12:48:44;;;;;;;;;;;;;;;33.93;24.99;99225.06;5013044;28;923;-63
2021/08/07 12:51:11;;;;;;;;;;;;;;;33.74;25.11;99234.13;5012941;28;881;-63
2021/08/07 12:53:41;;;;;;;;;;;;;;;33.30;24.64;99233.66;5012591;28;849;-64
2021/08/07 12:56:09;;;;;;;;;;;;;;;32.92;24.95;99238.09;5012691;28;866;-64
2021/08/07 12:58:36;;;;;;;;;;;;;;;32.65;25.14;99231.97;5012860;28;1886;-65
2021/08/07 13:01:11;;;;;;;;;;;;;;;32.03;25.54;99242.50;5012981;28;786;-64
2021/08/07 13:03:57;;;;;;;;;;;;;;;30.90;27.04;99247.72;5011148;28;1180;-65
2021/08/07 13:06:25;;;;;;;;;;;;;;;30.17;28.78;99244.50;5012201;28;976;-64
2021/08/07 13:08:52;;;;;;;;;;;;;;;31.18;28.26;99251.91;5012404;28;921;-64
2021/08/07 13:11:21;;;;;;;;;;;;;;;32.02;26.72;99246.69;5012318;28;815;-63
2021/08/07 13:13:53;;;;;;;;;;;;;;;32.30;25.86;99248.66;5012208;28;910;-63
2021/08/07 13:16:39;;;;;;;;;;;;;;;32.28;26.07;99257.03;5012021;28;1321;-63